createdAt,value
2018-12-01T00:02:17.277Z,8.79
2018-12-01T00:04:44.612Z,8.72
2018-12-01T00:07:12.439Z,8.63
2018-12-01T00:09:40.313Z,8.57
2018-12-01T00:12:09.082Z,8.51
2018-12-01T00:14:36.376Z,8.46
2018-12-01T00:17:04.924Z,8.41
2018-12-01T00:19:32.231Z,8.36
2018-12-01T00:21:59.552Z,8.32
2018-12-01T00:24:27.300Z,8.24
2018-12-01T00:26:57.644Z,8.17
2018-12-01T00:29:25.004Z,8.11
2018-12-01T00:31:52.726Z,8.09
2018-12-01T00:34:20.055Z,8.06
2018-12-01T00:36:47.372Z,8.04
2018-12-01T00:39:14.667Z,8.05
2018-12-01T00:41:42.283Z,8.04
2018-12-01T00:44:10.262Z,8.03
2018-12-01T00:46:37.608Z,8.03
2018-12-01T00:49:06.637Z,8.03
2018-12-01T00:51:38.540Z,8.05
2018-12-01T00:54:06.040Z,8.07
2018-12-01T00:56:33.494Z,8.07
2018-12-01T00:59:01.498Z,8.06
2018-12-01T01:01:28.800Z,8.05
2018-12-01T01:03:57.300Z,8.00
2018-12-01T01:06:24.680Z,7.98
2018-12-01T01:08:52.435Z,7.96
2018-12-01T01:11:21.567Z,7.97
2018-12-01T01:13:48.902Z,7.97
2018-12-01T01:16:16.315Z,7.95
2018-12-01T01:18:44.372Z,7.91
2018-12-01T01:21:11.709Z,7.93
2018-12-01T01:23:39.049Z,7.98
2018-12-01T01:26:06.372Z,8.01
2018-12-01T01:28:34.172Z,8.02
2018-12-01T01:31:01.471Z,8.00
2018-12-01T01:33:28.892Z,7.96
2018-12-01T01:35:56.500Z,7.93
2018-12-01T01:38:23.849Z,7.90
2018-12-01T01:40:56.412Z,7.87
2018-12-01T01:43:24.512Z,7.83
2018-12-01T01:45:52.332Z,7.77
2018-12-01T01:48:19.696Z,7.73
2018-12-01T01:50:47.024Z,7.72
2018-12-01T01:53:14.762Z,7.69
2018-12-01T01:55:42.072Z,7.68
2018-12-01T01:58:09.405Z,7.65
2018-12-01T02:00:36.776Z,7.65
2018-12-01T02:03:04.446Z,7.62
2018-12-01T02:05:31.769Z,7.58
2018-12-01T02:07:59.084Z,7.54
2018-12-01T02:10:26.441Z,7.51
2018-12-01T02:12:54.175Z,7.52
2018-12-01T02:15:21.512Z,7.51
2018-12-01T02:17:48.861Z,7.50
2018-12-01T02:20:16.259Z,7.50
2018-12-01T02:22:43.562Z,7.49
2018-12-01T02:25:10.890Z,7.47
2018-12-01T02:27:38.235Z,7.45
2018-12-01T02:30:06.346Z,7.44
2018-12-01T02:32:33.721Z,7.43
2018-12-01T02:35:01.088Z,7.42
2018-12-01T02:37:28.419Z,7.43
2018-12-01T02:39:56.470Z,7.43
2018-12-01T02:42:24.561Z,7.44
2018-12-01T02:44:51.983Z,7.48
2018-12-01T02:47:19.328Z,7.54
2018-12-01T02:49:47.114Z,7.61
2018-12-01T02:52:14.450Z,7.68
2018-12-01T02:54:41.780Z,7.76
2018-12-01T02:57:09.099Z,7.82
2018-12-01T02:59:36.913Z,7.88
2018-12-01T03:02:04.269Z,7.95
2018-12-01T03:04:31.606Z,7.99
2018-12-01T03:06:58.946Z,8.02
2018-12-01T03:09:26.718Z,8.06
2018-12-01T03:11:54.043Z,8.08
2018-12-01T03:14:22.255Z,8.12
2018-12-01T03:16:50.283Z,8.14
2018-12-01T03:19:19.241Z,8.14
2018-12-01T03:21:47.544Z,8.17
2018-12-01T03:24:14.875Z,8.18
2018-12-01T03:26:42.607Z,8.20
2018-12-01T03:29:10.027Z,8.22
2018-12-01T03:31:37.354Z,8.25
2018-12-01T03:34:05.915Z,8.26
2018-12-01T03:36:33.255Z,8.30
2018-12-01T03:39:00.594Z,8.33
2018-12-01T03:41:27.935Z,8.36
2018-12-01T03:43:55.660Z,8.38
2018-12-01T03:46:22.996Z,8.40
2018-12-01T03:48:50.305Z,8.41
2018-12-01T03:51:17.696Z,8.40
2018-12-01T03:53:48.042Z,8.41
2018-12-01T03:56:15.340Z,8.37
2018-12-01T03:58:42.638Z,8.36
2018-12-01T04:01:10.263Z,8.30
2018-12-01T04:03:38.582Z,8.25
2018-12-01T04:06:05.877Z,8.20
2018-12-01T04:08:33.208Z,8.17
2018-12-01T04:11:00.861Z,8.16
2018-12-01T04:13:28.167Z,8.16
2018-12-01T04:15:55.502Z,8.16
2018-12-01T04:18:22.824Z,8.12
2018-12-01T04:20:51.059Z,8.17
2018-12-01T04:23:18.487Z,8.21
2018-12-01T04:25:45.771Z,8.24
2018-12-01T04:28:13.128Z,8.26
2018-12-01T04:30:40.766Z,8.31
2018-12-01T04:33:08.140Z,8.32
2018-12-01T04:35:35.468Z,8.35
2018-12-01T04:38:02.852Z,8.37
2018-12-01T04:40:30.636Z,8.38
2018-12-01T04:42:59.872Z,8.38
2018-12-01T04:45:27.218Z,8.38
2018-12-01T04:47:55.159Z,8.37
2018-12-01T04:50:22.483Z,8.34
2018-12-01T04:52:49.818Z,8.34
2018-12-01T04:55:17.203Z,8.33
2018-12-01T04:57:44.901Z,8.32
2018-12-01T05:00:12.187Z,8.28
2018-12-01T05:02:39.596Z,8.27
2018-12-01T05:05:06.897Z,8.25
2018-12-01T05:07:34.459Z,8.22
2018-12-01T05:10:01.785Z,8.20
2018-12-01T05:12:29.133Z,8.16
2018-12-01T05:14:56.479Z,8.15
2018-12-01T05:17:24.205Z,8.14
2018-12-01T05:19:51.587Z,8.17
2018-12-01T05:22:18.883Z,8.21
2018-12-01T05:24:46.176Z,8.24
2018-12-01T05:27:13.831Z,8.26
2018-12-01T05:29:41.194Z,8.29
2018-12-01T05:32:08.479Z,8.30
2018-12-01T05:34:35.803Z,8.29
2018-12-01T05:37:06.459Z,8.26
2018-12-01T05:39:33.809Z,8.23
2018-12-01T05:42:01.124Z,8.18
2018-12-01T05:44:28.491Z,8.12
2018-12-01T05:46:56.280Z,8.07
2018-12-01T05:49:23.584Z,8.02
2018-12-01T05:51:50.916Z,8.01
2018-12-01T05:54:18.668Z,8.02
2018-12-01T05:56:45.984Z,8.05
2018-12-01T05:59:13.273Z,8.08
2018-12-01T06:01:40.583Z,8.09
2018-12-01T06:04:08.391Z,8.06
2018-12-01T06:06:35.695Z,8.02
2018-12-01T06:09:03.092Z,7.99
2018-12-01T06:11:30.436Z,8.03
2018-12-01T06:13:58.182Z,8.02
2018-12-01T06:16:25.519Z,8.02
2018-12-01T06:18:52.825Z,8.02
2018-12-01T06:21:20.151Z,8.03
2018-12-01T06:23:47.445Z,8.05
2018-12-01T06:26:15.703Z,8.06
2018-12-01T06:28:43.021Z,8.07
2018-12-01T06:31:10.775Z,8.10
2018-12-01T06:33:38.072Z,8.08
2018-12-01T06:36:05.402Z,8.06
2018-12-01T06:38:34.051Z,8.03
2018-12-01T06:41:01.421Z,7.99
2018-12-01T06:43:28.749Z,7.94
2018-12-01T06:45:56.390Z,7.90
2018-12-01T06:48:23.723Z,7.89
2018-12-01T06:50:52.163Z,7.89
2018-12-01T06:53:21.013Z,7.88
2018-12-01T06:55:48.338Z,7.85
2018-12-01T06:58:15.692Z,7.84
2018-12-01T07:00:43.032Z,7.82
2018-12-01T07:03:10.843Z,7.81
2018-12-01T07:05:38.179Z,7.80
2018-12-01T07:08:05.540Z,7.85
2018-12-01T07:10:33.199Z,7.89
2018-12-01T07:13:00.580Z,7.93
2018-12-01T07:15:29.006Z,7.95
2018-12-01T07:17:56.853Z,7.98
2018-12-01T07:20:24.203Z,8.00
2018-12-01T07:22:51.507Z,8.01
2018-12-01T07:25:19.275Z,8.04
2018-12-01T07:27:46.571Z,8.07
2018-12-01T07:30:13.877Z,8.10
2018-12-01T07:32:41.657Z,8.10
2018-12-01T07:35:09.256Z,8.08
2018-12-01T07:37:37.269Z,8.09
2018-12-01T07:40:05.730Z,8.10
2018-12-01T07:42:33.083Z,8.15
2018-12-01T07:45:00.393Z,8.17
2018-12-01T07:47:28.460Z,8.19
2018-12-01T07:49:55.842Z,8.16
2018-12-01T07:52:23.239Z,8.11
2018-12-01T07:54:50.978Z,8.07
2018-12-01T07:57:18.316Z,8.06
2018-12-01T07:59:45.646Z,8.06
2018-12-01T08:02:13.438Z,8.08
2018-12-01T08:04:40.820Z,8.13
2018-12-01T08:07:09.227Z,8.17
2018-12-01T08:09:39.277Z,8.24
2018-12-01T08:12:06.679Z,8.31
2018-12-01T08:14:34.068Z,8.35
2018-12-01T08:17:02.590Z,8.39
2018-12-01T08:19:29.951Z,8.43
2018-12-01T08:21:57.311Z,8.48
2018-12-01T08:24:24.616Z,8.54
2018-12-01T08:26:51.947Z,8.60
2018-12-01T08:29:20.391Z,8.68
2018-12-01T08:31:48.366Z,8.74
2018-12-01T08:34:15.716Z,8.79
2018-12-01T08:36:43.595Z,8.82
2018-12-01T08:39:12.282Z,8.87
2018-12-01T08:41:39.628Z,8.90
2018-12-01T08:44:07.359Z,8.94
2018-12-01T08:46:34.781Z,8.95
2018-12-01T08:49:02.218Z,8.97
2018-12-01T08:51:29.862Z,8.97
2018-12-01T08:53:57.240Z,8.95
2018-12-01T08:56:24.613Z,8.95
2018-12-01T08:58:52.251Z,8.92
2018-12-01T09:01:19.575Z,8.88
2018-12-01T09:03:46.979Z,8.88
2018-12-01T09:06:14.621Z,8.88
2018-12-01T09:08:41.963Z,8.90
2018-12-01T09:11:09.335Z,8.93
2018-12-01T09:13:37.693Z,8.98
2018-12-01T09:16:05.017Z,9.01
2018-12-01T09:18:32.319Z,9.07
2018-12-01T09:21:01.342Z,9.17
2018-12-01T09:23:29.395Z,9.30
2018-12-01T09:25:56.787Z,9.43
2018-12-01T09:28:25.087Z,9.52
2018-12-01T09:30:53.463Z,9.63
2018-12-01T09:33:21.458Z,9.72
2018-12-01T09:35:49.283Z,9.80
2018-12-01T09:38:16.607Z,9.85
2018-12-01T09:40:44.841Z,10.02
2018-12-01T09:43:13.342Z,10.34
2018-12-01T09:45:40.644Z,10.78
2018-12-01T09:48:07.976Z,11.02
2018-12-01T09:50:36.487Z,11.13
2018-12-01T09:53:04.651Z,11.56
2018-12-01T09:55:31.991Z,12.05
2018-12-01T09:57:59.585Z,12.71
2018-12-01T10:00:27.821Z,13.29
2018-12-01T10:02:55.300Z,13.65
2018-12-01T10:05:23.790Z,13.95
2018-12-01T10:07:51.364Z,14.11
2018-12-01T10:10:19.411Z,14.01
2018-12-01T10:12:47.060Z,13.93
2018-12-01T10:15:14.766Z,13.40
2018-12-01T10:17:42.205Z,12.87
2018-12-01T10:20:11.695Z,12.75
2018-12-01T10:22:39.032Z,12.85
2018-12-01T10:25:06.370Z,12.92
2018-12-01T10:27:34.007Z,13.21
2018-12-01T10:30:01.446Z,13.69
2018-12-01T10:32:28.846Z,14.20
2018-12-01T10:34:56.628Z,14.68
2018-12-01T10:37:23.991Z,14.92
2018-12-01T10:39:52.007Z,15.01
2018-12-01T10:42:20.447Z,15.30
2018-12-01T10:44:47.743Z,15.54
2018-12-01T10:47:15.049Z,15.74
2018-12-01T10:49:43.384Z,15.78
2018-12-01T10:52:10.699Z,15.62
2018-12-01T10:54:38.047Z,15.46
2018-12-01T10:57:06.535Z,15.32
2018-12-01T10:59:35.027Z,14.73
2018-12-01T11:02:07.510Z,14.52
2018-12-01T11:04:40.890Z,14.17
2018-12-01T11:07:08.262Z,13.72
2018-12-01T11:09:36.215Z,13.51
2018-12-01T11:12:05.035Z,13.70
2018-12-01T11:14:32.366Z,13.64
2018-12-01T11:17:00.328Z,13.62
2018-12-01T11:19:29.020Z,13.48
2018-12-01T11:21:56.385Z,13.16
2018-12-01T11:24:23.708Z,13.02
2018-12-01T11:26:51.434Z,13.04
2018-12-01T11:29:18.768Z,12.76
2018-12-01T11:31:46.115Z,12.47
2018-12-01T11:34:13.757Z,12.10
2018-12-01T11:36:41.114Z,11.91
2018-12-01T11:39:08.490Z,11.96
2018-12-01T11:41:36.251Z,12.08
2018-12-01T11:44:04.235Z,12.14
2018-12-01T11:46:31.575Z,12.16
2018-12-01T11:48:59.443Z,12.23
2018-12-01T11:51:27.352Z,12.23
2018-12-01T11:53:54.691Z,12.16
2018-12-01T11:56:22.502Z,12.09
2018-12-01T11:58:49.839Z,12.02
2018-12-01T12:01:17.224Z,11.99
2018-12-01T12:03:45.036Z,11.93
2018-12-01T12:06:12.423Z,11.76
2018-12-01T12:08:39.724Z,11.56
2018-12-01T12:11:07.502Z,11.45
2018-12-01T12:13:35.715Z,11.36
2018-12-01T12:16:03.036Z,11.25
2018-12-01T12:18:30.643Z,11.13
2018-12-01T12:20:58.956Z,11.02
2018-12-01T12:23:26.338Z,10.92
2018-12-01T12:25:54.965Z,10.83
2018-12-01T12:28:22.297Z,10.74
2018-12-01T12:30:50.215Z,10.66
2018-12-01T12:33:17.928Z,10.57
2018-12-01T12:35:45.328Z,10.51
2018-12-01T12:38:12.668Z,10.45
2018-12-01T12:40:40.511Z,10.40
2018-12-01T12:43:07.815Z,10.35
2018-12-01T12:45:35.956Z,10.33
2018-12-01T12:48:03.620Z,10.30
2018-12-01T12:50:31.930Z,10.30
2018-12-01T12:53:00.539Z,10.28
2018-12-01T12:55:27.847Z,10.29
2018-12-01T12:57:55.173Z,10.27
2018-12-01T13:00:23.305Z,10.28
2018-12-01T13:02:50.654Z,10.29
2018-12-01T13:05:18.815Z,10.29
2018-12-01T13:07:47.661Z,10.30
2018-12-01T13:10:15.355Z,10.32
2018-12-01T13:12:42.741Z,10.33
2018-12-01T13:15:11.739Z,10.35
2018-12-01T13:17:39.054Z,10.36
2018-12-01T13:20:06.336Z,10.39
2018-12-01T13:22:34.153Z,10.40
2018-12-01T13:25:02.221Z,10.41
2018-12-01T13:27:29.640Z,10.42
2018-12-01T13:29:57.255Z,10.42
2018-12-01T13:32:25.123Z,10.42
2018-12-01T13:34:53.739Z,10.42
2018-12-01T13:37:21.545Z,10.42
2018-12-01T13:39:48.835Z,10.41
2018-12-01T13:42:16.923Z,10.39
2018-12-01T13:44:44.659Z,10.39
2018-12-01T13:47:12.001Z,10.38
2018-12-01T13:49:39.397Z,10.37
2018-12-01T13:52:07.719Z,10.36
2018-12-01T13:54:38.740Z,10.35
2018-12-01T13:57:07.715Z,10.34
2018-12-01T13:59:36.063Z,10.34
2018-12-01T14:02:03.397Z,10.34
2018-12-01T14:04:30.699Z,10.31
2018-12-01T14:06:58.469Z,10.30
2018-12-01T14:09:25.819Z,10.27
2018-12-01T14:11:54.820Z,10.25
2018-12-01T14:14:22.463Z,10.24
2018-12-01T14:16:49.790Z,10.21
2018-12-01T14:19:17.934Z,10.18
2018-12-01T14:21:45.691Z,10.15
2018-12-01T14:24:13.015Z,10.10
2018-12-01T14:26:40.816Z,10.08
2018-12-01T14:29:08.547Z,10.03
2018-12-01T14:31:37.456Z,10.01
2018-12-01T14:34:04.747Z,10.01
2018-12-01T14:36:32.555Z,9.98
2018-12-01T14:38:59.958Z,9.93
2018-12-01T14:41:27.263Z,9.91
2018-12-01T14:43:55.867Z,9.89
2018-12-01T14:46:23.756Z,9.85
2018-12-01T14:48:51.584Z,9.83
2018-12-01T14:51:19.377Z,9.82
2018-12-01T14:53:46.804Z,9.83
2018-12-01T14:56:14.159Z,9.84
2018-12-01T14:58:42.739Z,9.83
2018-12-01T15:01:10.089Z,9.85
2018-12-01T15:03:37.394Z,9.85
2018-12-01T15:06:05.489Z,9.86
2018-12-01T15:08:32.900Z,9.86
2018-12-01T15:11:01.307Z,9.87
2018-12-01T15:13:30.712Z,9.86
2018-12-01T15:15:58.056Z,9.85
2018-12-01T15:18:25.375Z,9.82
2018-12-01T15:20:55.406Z,9.83
2018-12-01T15:23:22.724Z,9.83
2018-12-01T15:25:52.523Z,9.82
2018-12-01T15:28:23.822Z,9.83
2018-12-01T15:30:55.559Z,9.82
2018-12-01T15:33:22.918Z,9.83
2018-12-01T15:35:52.323Z,9.85
2018-12-01T15:38:20.313Z,9.86
2018-12-01T15:40:48.604Z,9.86
2018-12-01T15:43:17.076Z,9.86
2018-12-01T15:45:43.812Z,9.83
2018-12-01T15:48:11.353Z,9.82
2018-12-01T15:50:39.864Z,9.81
2018-12-01T15:53:07.906Z,9.80
2018-12-01T15:55:35.248Z,9.79
2018-12-01T15:58:04.187Z,9.78
2018-12-01T16:00:31.520Z,9.77
2018-12-01T16:02:58.860Z,9.77
2018-12-01T16:05:26.616Z,9.75
2018-12-01T16:07:53.944Z,9.74
2018-12-01T16:10:21.244Z,9.72
2018-12-01T16:12:49.016Z,9.70
2018-12-01T16:15:16.493Z,9.69
2018-12-01T16:17:43.847Z,9.67
2018-12-01T16:20:12.099Z,9.65
2018-12-01T16:22:39.423Z,9.64
2018-12-01T16:25:07.316Z,9.63
2018-12-01T16:27:36.520Z,9.63
2018-12-01T16:30:03.999Z,9.61
2018-12-01T16:32:31.289Z,9.61
2018-12-01T16:34:59.260Z,9.59
2018-12-01T16:37:26.632Z,9.59
2018-12-01T16:39:53.990Z,9.56
2018-12-01T16:42:21.687Z,9.54
2018-12-01T16:44:49.004Z,9.51
2018-12-01T16:47:16.325Z,9.49
2018-12-01T16:49:44.095Z,9.46
2018-12-01T16:52:11.449Z,9.44
2018-12-01T16:54:38.754Z,9.44
2018-12-01T16:57:07.218Z,9.39
2018-12-01T16:59:34.498Z,9.37
2018-12-01T17:02:02.596Z,9.34
2018-12-01T17:04:30.311Z,9.34
2018-12-01T17:06:57.741Z,9.34
2018-12-01T17:09:25.320Z,9.34
2018-12-01T17:11:54.037Z,9.34
2018-12-01T17:14:22.076Z,9.35
2018-12-01T17:16:50.315Z,9.34
2018-12-01T17:19:18.839Z,9.35
2018-12-01T17:21:46.270Z,9.36
2018-12-01T17:24:14.264Z,9.35
2018-12-01T17:26:41.876Z,9.35
2018-12-01T17:29:09.167Z,9.35
2018-12-01T17:31:36.477Z,9.35
2018-12-01T17:34:04.280Z,9.35
2018-12-01T17:36:31.576Z,9.34
2018-12-01T17:38:58.923Z,9.33
2018-12-01T17:41:26.708Z,9.32
2018-12-01T17:43:55.625Z,9.31
2018-12-01T17:46:22.933Z,9.30
2018-12-01T17:48:50.709Z,9.29
2018-12-01T17:51:18.113Z,9.28
2018-12-01T17:53:45.416Z,9.27
2018-12-01T17:56:12.801Z,9.27
2018-12-01T17:58:40.440Z,9.29
2018-12-01T18:01:08.126Z,9.29
2018-12-01T18:03:35.502Z,9.32
2018-12-01T18:06:02.855Z,9.32
2018-12-01T18:08:30.741Z,9.33
2018-12-01T18:10:58.323Z,9.33
2018-12-01T18:13:25.665Z,9.33
2018-12-01T18:15:53.280Z,9.33
2018-12-01T18:18:20.611Z,9.31
2018-12-01T18:20:47.939Z,9.32
2018-12-01T18:23:15.773Z,9.33
2018-12-01T18:25:43.686Z,9.32
2018-12-01T18:28:11.008Z,9.32
2018-12-01T18:30:38.690Z,9.32
2018-12-01T18:33:05.970Z,9.32
2018-12-01T18:35:33.337Z,9.32
2018-12-01T18:38:01.053Z,9.32
2018-12-01T18:40:28.635Z,9.33
2018-12-01T18:42:56.813Z,9.34
2018-12-01T18:45:24.623Z,9.33
2018-12-01T18:47:51.964Z,9.33
2018-12-01T18:50:19.309Z,9.32
2018-12-01T18:52:47.823Z,9.30
2018-12-01T18:55:16.494Z,9.29
2018-12-01T18:57:44.601Z,9.29
2018-12-01T19:00:13.735Z,9.28
2018-12-01T19:02:41.288Z,9.27
2018-12-01T19:05:08.672Z,9.27
2018-12-01T19:07:36.601Z,9.26
2018-12-01T19:10:04.835Z,9.24
2018-12-01T19:12:34.450Z,9.23
2018-12-01T19:15:02.156Z,9.21
2018-12-01T19:17:30.063Z,9.17
2018-12-01T19:19:58.032Z,9.15
2018-12-01T19:22:25.739Z,9.13
2018-12-01T19:24:53.067Z,9.12
2018-12-01T19:27:20.459Z,9.10
2018-12-01T19:29:48.282Z,9.09
2018-12-01T19:32:16.651Z,9.10
2018-12-01T19:34:46.658Z,9.08
2018-12-01T19:37:15.032Z,9.05
2018-12-01T19:39:42.332Z,9.05
2018-12-01T19:42:11.740Z,9.04
2018-12-01T19:44:39.510Z,9.02
2018-12-01T19:47:06.793Z,9.02
2018-12-01T19:49:34.143Z,9.02
2018-12-01T19:52:02.929Z,8.99
2018-12-01T19:54:31.183Z,9.00
2018-12-01T19:56:58.471Z,8.99
2018-12-01T19:59:26.557Z,9.00
2018-12-01T20:01:54.025Z,9.00
2018-12-01T20:04:21.432Z,9.00
2018-12-01T20:06:49.162Z,9.01
2018-12-01T20:09:17.318Z,9.01
2018-12-01T20:11:44.659Z,9.00
2018-12-01T20:14:14.576Z,8.99
2018-12-01T20:16:45.416Z,8.98
2018-12-01T20:19:12.793Z,8.96
2018-12-01T20:21:40.548Z,8.94
2018-12-01T20:24:08.791Z,8.93
2018-12-01T20:26:39.802Z,8.92
2018-12-01T20:29:07.724Z,8.93
2018-12-01T20:31:36.004Z,8.93
2018-12-01T20:34:03.366Z,8.94
2018-12-01T20:36:31.639Z,8.94
2018-12-01T20:38:59.942Z,8.95
2018-12-01T20:41:27.309Z,8.95
2018-12-01T20:43:57.327Z,8.94
2018-12-01T20:46:24.692Z,8.90
2018-12-01T20:48:52.794Z,8.89
2018-12-01T20:51:20.578Z,8.90
2018-12-01T20:53:48.750Z,8.91
2018-12-01T20:56:16.148Z,8.88
2018-12-01T20:58:46.015Z,8.84
2018-12-01T21:01:13.346Z,8.82
2018-12-01T21:03:41.398Z,8.81
2018-12-01T21:06:13.086Z,8.80
2018-12-01T21:08:40.638Z,8.81
2018-12-01T21:11:09.713Z,8.83
2018-12-01T21:13:37.867Z,8.86
2018-12-01T21:16:09.488Z,8.88
2018-12-01T21:18:37.618Z,8.89
2018-12-01T21:21:06.017Z,8.92
2018-12-01T21:23:33.334Z,8.95
2018-12-01T21:26:01.533Z,8.96
2018-12-01T21:28:29.316Z,8.96
2018-12-01T21:30:56.660Z,8.97
2018-12-01T21:33:26.784Z,8.96
2018-12-01T21:35:54.476Z,8.94
2018-12-01T21:38:22.722Z,8.92
2018-12-01T21:40:50.069Z,8.90
2018-12-01T21:43:19.465Z,8.90
2018-12-01T21:45:46.825Z,8.90
2018-12-01T21:48:16.643Z,8.90
2018-12-01T21:50:44.797Z,8.89
2018-12-01T21:53:12.088Z,8.87
2018-12-01T21:55:39.443Z,8.85
2018-12-01T21:58:07.070Z,8.81
2018-12-01T22:00:35.035Z,8.78
2018-12-01T22:03:02.950Z,8.79
2018-12-01T22:05:30.652Z,8.80
2018-12-01T22:07:57.970Z,8.80
2018-12-01T22:10:26.621Z,8.77
2018-12-01T22:12:54.294Z,8.77
2018-12-01T22:15:22.614Z,8.75
2018-12-01T22:17:50.784Z,8.75
2018-12-01T22:20:19.939Z,8.79
2018-12-01T22:22:47.493Z,8.79
2018-12-01T22:25:14.823Z,8.79
2018-12-01T22:27:43.072Z,8.82
2018-12-01T22:30:10.351Z,8.83
2018-12-01T22:32:38.305Z,8.88
2018-12-01T22:35:05.982Z,8.92
2018-12-01T22:37:33.292Z,8.95
2018-12-01T22:40:01.453Z,8.98
2018-12-01T22:42:29.151Z,9.02
2018-12-01T22:44:56.551Z,9.04
2018-12-01T22:47:23.891Z,9.05
2018-12-01T22:49:52.268Z,9.04
2018-12-01T22:52:19.572Z,9.05
2018-12-01T22:54:46.914Z,9.04
2018-12-01T22:57:14.208Z,9.00
2018-12-01T22:59:42.209Z,9.01
2018-12-01T23:02:10.716Z,9.03
2018-12-01T23:04:38.996Z,9.05
2018-12-01T23:07:06.343Z,9.03
2018-12-01T23:09:34.928Z,9.03
2018-12-01T23:12:02.333Z,9.03
2018-12-01T23:14:29.747Z,9.01
2018-12-01T23:16:57.945Z,9.01
2018-12-01T23:19:26.753Z,9.03
2018-12-01T23:21:54.259Z,9.03
2018-12-01T23:24:21.990Z,9.04
2018-12-01T23:26:50.064Z,9.06
2018-12-01T23:29:17.388Z,9.07
2018-12-01T23:31:46.198Z,9.09
2018-12-01T23:34:14.175Z,9.11
2018-12-01T23:36:41.462Z,9.14
2018-12-01T23:39:09.141Z,9.18
2018-12-01T23:41:36.495Z,9.21
2018-12-01T23:44:03.802Z,9.23
2018-12-01T23:46:31.480Z,9.26
2018-12-01T23:48:58.812Z,9.29
2018-12-01T23:51:26.315Z,9.31
2018-12-01T23:53:54.039Z,9.34
2018-12-01T23:56:21.330Z,9.37
2018-12-01T23:58:48.623Z,9.38
